sensor_id;sensor_type;location;lat;lon;timestamp;temperature;humidity
72650;SHT31;61467;50.674;4.618;2022-07-06T00:01:39;16.97;59.99
72650;SHT31;61467;50.674;4.618;2022-07-06T00:04:06;16.93;60.02
72650;SHT31;61467;50.674;4.618;2022-07-06T00:06:33;16.86;60.47
72650;SHT31;61467;50.674;4.618;2022-07-06T00:09:02;16.80;61.21
72650;SHT31;61467;50.674;4.618;2022-07-06T00:11:29;16.80;61.22
72650;SHT31;61467;50.674;4.618;2022-07-06T00:13:56;16.66;61.40
72650;SHT31;61467;50.674;4.618;2022-07-06T00:16:23;16.55;62.00
72650;SHT31;61467;50.674;4.618;2022-07-06T00:18:50;16.58;61.85
72650;SHT31;61467;50.674;4.618;2022-07-06T00:21:17;16.44;61.82
72650;SHT31;61467;50.674;4.618;2022-07-06T00:23:44;16.44;62.37
72650;SHT31;61467;50.674;4.618;2022-07-06T00:26:13;16.40;62.42
72650;SHT31;61467;50.674;4.618;2022-07-06T00:28:39;16.42;62.27
72650;SHT31;61467;50.674;4.618;2022-07-06T00:31:06;16.47;62.26
72650;SHT31;61467;50.674;4.618;2022-07-06T00:33:33;16.38;62.27
72650;SHT31;61467;50.674;4.618;2022-07-06T00:35:59;16.36;62.50
72650;SHT31;61467;50.674;4.618;2022-07-06T00:38:26;16.25;62.73
72650;SHT31;61467;50.674;4.618;2022-07-06T00:40:53;16.22;63.00
72650;SHT31;61467;50.674;4.618;2022-07-06T00:43:21;16.25;62.82
72650;SHT31;61467;50.674;4.618;2022-07-06T00:45:47;16.25;62.87
72650;SHT31;61467;50.674;4.618;2022-07-06T00:48:14;16.24;62.92
72650;SHT31;61467;50.674;4.618;2022-07-06T00:50:41;16.22;63.06
72650;SHT31;61467;50.674;4.618;2022-07-06T00:53:08;16.31;62.83
72650;SHT31;61467;50.674;4.618;2022-07-06T00:55:36;16.28;62.93
72650;SHT31;61467;50.674;4.618;2022-07-06T00:58:05;16.25;62.82
72650;SHT31;61467;50.674;4.618;2022-07-06T01:00:34;16.21;63.07
72650;SHT31;61467;50.674;4.618;2022-07-06T01:03:01;16.17;63.37
72650;SHT31;61467;50.674;4.618;2022-07-06T01:05:28;16.05;63.64
72650;SHT31;61467;50.674;4.618;2022-07-06T01:07:55;16.04;63.36
72650;SHT31;61467;50.674;4.618;2022-07-06T01:10:23;16.00;63.65
72650;SHT31;61467;50.674;4.618;2022-07-06T01:12:50;15.97;63.71
72650;SHT31;61467;50.674;4.618;2022-07-06T01:15:20;15.98;63.63
72650;SHT31;61467;50.674;4.618;2022-07-06T01:17:49;15.87;63.68
72650;SHT31;61467;50.674;4.618;2022-07-06T01:20:18;15.83;64.07
72650;SHT31;61467;50.674;4.618;2022-07-06T01:22:46;15.80;63.98
72650;SHT31;61467;50.674;4.618;2022-07-06T01:25:13;15.70;64.36
72650;SHT31;61467;50.674;4.618;2022-07-06T01:27:41;15.69;64.40
72650;SHT31;61467;50.674;4.618;2022-07-06T01:30:11;15.71;64.20
72650;SHT31;61467;50.674;4.618;2022-07-06T01:32:38;15.77;64.10
72650;SHT31;61467;50.674;4.618;2022-07-06T01:35:06;15.67;64.58
72650;SHT31;61467;50.674;4.618;2022-07-06T01:37:36;15.63;64.79
72650;SHT31;61467;50.674;4.618;2022-07-06T01:40:05;15.44;65.34
72650;SHT31;61467;50.674;4.618;2022-07-06T01:42:32;15.47;65.28
72650;SHT31;61467;50.674;4.618;2022-07-06T01:44:59;15.50;65.03
72650;SHT31;61467;50.674;4.618;2022-07-06T01:47:26;15.52;64.92
72650;SHT31;61467;50.674;4.618;2022-07-06T01:49:57;15.42;65.37
72650;SHT31;61467;50.674;4.618;2022-07-06T01:52:24;15.42;65.35
72650;SHT31;61467;50.674;4.618;2022-07-06T01:54:53;15.36;65.40
72650;SHT31;61467;50.674;4.618;2022-07-06T01:57:19;15.40;65.33
72650;SHT31;61467;50.674;4.618;2022-07-06T01:59:46;15.33;65.14
72650;SHT31;61467;50.674;4.618;2022-07-06T02:02:13;15.39;65.20
72650;SHT31;61467;50.674;4.618;2022-07-06T02:04:40;15.33;65.39
72650;SHT31;61467;50.674;4.618;2022-07-06T02:07:07;15.35;65.25
72650;SHT31;61467;50.674;4.618;2022-07-06T02:09:34;15.31;65.27
72650;SHT31;61467;50.674;4.618;2022-07-06T02:12:02;15.29;65.37
72650;SHT31;61467;50.674;4.618;2022-07-06T02:14:29;15.28;65.40
72650;SHT31;61467;50.674;4.618;2022-07-06T02:16:56;15.23;65.42
72650;SHT31;61467;50.674;4.618;2022-07-06T02:19:22;15.21;66.12
72650;SHT31;61467;50.674;4.618;2022-07-06T02:21:49;15.23;65.96
72650;SHT31;61467;50.674;4.618;2022-07-06T02:24:16;15.25;65.88
72650;SHT31;61467;50.674;4.618;2022-07-06T02:26:42;15.23;65.81
72650;SHT31;61467;50.674;4.618;2022-07-06T02:29:10;15.18;66.17
72650;SHT31;61467;50.674;4.618;2022-07-06T02:31:37;15.13;66.23
72650;SHT31;61467;50.674;4.618;2022-07-06T02:34:04;15.11;66.55
72650;SHT31;61467;50.674;4.618;2022-07-06T02:36:31;15.12;66.31
72650;SHT31;61467;50.674;4.618;2022-07-06T02:38:57;15.11;66.24
72650;SHT31;61467;50.674;4.618;2022-07-06T02:41:24;15.11;66.23
72650;SHT31;61467;50.674;4.618;2022-07-06T02:43:50;15.08;66.33
72650;SHT31;61467;50.674;4.618;2022-07-06T02:46:18;15.06;66.39
72650;SHT31;61467;50.674;4.618;2022-07-06T02:48:45;15.05;66.36
72650;SHT31;61467;50.674;4.618;2022-07-06T02:51:12;15.09;66.13
72650;SHT31;61467;50.674;4.618;2022-07-06T02:53:38;15.13;65.96
72650;SHT31;61467;50.674;4.618;2022-07-06T02:56:05;14.99;66.27
72650;SHT31;61467;50.674;4.618;2022-07-06T02:58:32;15.02;66.41
72650;SHT31;61467;50.674;4.618;2022-07-06T03:00:59;14.96;66.29
72650;SHT31;61467;50.674;4.618;2022-07-06T03:03:27;14.94;66.31
72650;SHT31;61467;50.674;4.618;2022-07-06T03:05:53;14.94;66.21
72650;SHT31;61467;50.674;4.618;2022-07-06T03:08:20;14.92;66.60
72650;SHT31;61467;50.674;4.618;2022-07-06T03:10:47;14.92;66.95
72650;SHT31;61467;50.674;4.618;2022-07-06T03:13:13;14.87;67.00
72650;SHT31;61467;50.674;4.618;2022-07-06T03:15:40;14.88;66.51
72650;SHT31;61467;50.674;4.618;2022-07-06T03:18:07;14.89;66.64
72650;SHT31;61467;50.674;4.618;2022-07-06T03:20:35;14.85;66.67
72650;SHT31;61467;50.674;4.618;2022-07-06T03:23:01;14.82;66.47
72650;SHT31;61467;50.674;4.618;2022-07-06T03:25:28;14.78;66.84
72650;SHT31;61467;50.674;4.618;2022-07-06T03:27:55;14.74;67.17
72650;SHT31;61467;50.674;4.618;2022-07-06T03:30:22;14.75;66.96
72650;SHT31;61467;50.674;4.618;2022-07-06T03:32:48;14.77;66.99
72650;SHT31;61467;50.674;4.618;2022-07-06T03:35:15;14.73;67.43
72650;SHT31;61467;50.674;4.618;2022-07-06T03:37:43;14.71;67.42
72650;SHT31;61467;50.674;4.618;2022-07-06T03:40:11;14.70;67.48
72650;SHT31;61467;50.674;4.618;2022-07-06T03:42:39;14.77;67.30
72650;SHT31;61467;50.674;4.618;2022-07-06T03:45:06;14.73;67.30
72650;SHT31;61467;50.674;4.618;2022-07-06T03:47:33;14.59;67.92
72650;SHT31;61467;50.674;4.618;2022-07-06T03:50:00;14.68;67.59
72650;SHT31;61467;50.674;4.618;2022-07-06T03:52:27;14.57;68.25
72650;SHT31;61467;50.674;4.618;2022-07-06T03:54:55;14.59;68.25
72650;SHT31;61467;50.674;4.618;2022-07-06T03:57:21;14.54;68.04
72650;SHT31;61467;50.674;4.618;2022-07-06T03:59:48;14.59;67.93
72650;SHT31;61467;50.674;4.618;2022-07-06T04:02:15;14.64;67.96
72650;SHT31;61467;50.674;4.618;2022-07-06T04:04:41;14.63;68.03
72650;SHT31;61467;50.674;4.618;2022-07-06T04:07:08;14.64;68.12
72650;SHT31;61467;50.674;4.618;2022-07-06T04:09:35;14.59;68.15
72650;SHT31;61467;50.674;4.618;2022-07-06T04:12:03;14.65;68.10
72650;SHT31;61467;50.674;4.618;2022-07-06T04:14:30;14.64;68.18
72650;SHT31;61467;50.674;4.618;2022-07-06T04:16:57;14.73;68.09
72650;SHT31;61467;50.674;4.618;2022-07-06T04:19:23;14.68;67.93
72650;SHT31;61467;50.674;4.618;2022-07-06T04:21:50;14.75;68.04
72650;SHT31;61467;50.674;4.618;2022-07-06T04:24:16;14.77;67.89
72650;SHT31;61467;50.674;4.618;2022-07-06T04:26:43;14.81;67.51
72650;SHT31;61467;50.674;4.618;2022-07-06T04:29:15;14.81;67.54
72650;SHT31;61467;50.674;4.618;2022-07-06T04:31:41;14.78;67.90
72650;SHT31;61467;50.674;4.618;2022-07-06T04:34:09;14.75;67.99
72650;SHT31;61467;50.674;4.618;2022-07-06T04:36:35;14.60;68.41
72650;SHT31;61467;50.674;4.618;2022-07-06T04:39:02;14.68;68.89
72650;SHT31;61467;50.674;4.618;2022-07-06T04:41:29;14.77;68.51
72650;SHT31;61467;50.674;4.618;2022-07-06T04:43:55;14.84;68.42
72650;SHT31;61467;50.674;4.618;2022-07-06T04:46:23;14.84;68.21
72650;SHT31;61467;50.674;4.618;2022-07-06T04:48:50;14.87;68.33
72650;SHT31;61467;50.674;4.618;2022-07-06T04:51:17;14.91;68.43
72650;SHT31;61467;50.674;4.618;2022-07-06T04:53:43;14.91;68.26
72650;SHT31;61467;50.674;4.618;2022-07-06T04:56:11;14.94;68.48
72650;SHT31;61467;50.674;4.618;2022-07-06T04:58:37;14.99;68.53
72650;SHT31;61467;50.674;4.618;2022-07-06T05:01:04;14.95;68.05
72650;SHT31;61467;50.674;4.618;2022-07-06T05:03:33;14.91;68.24
72650;SHT31;61467;50.674;4.618;2022-07-06T05:06:00;14.99;68.47
72650;SHT31;61467;50.674;4.618;2022-07-06T05:08:27;15.06;68.11
72650;SHT31;61467;50.674;4.618;2022-07-06T05:10:54;15.06;67.75
72650;SHT31;61467;50.674;4.618;2022-07-06T05:13:20;15.06;68.05
72650;SHT31;61467;50.674;4.618;2022-07-06T05:15:47;15.15;67.81
72650;SHT31;61467;50.674;4.618;2022-07-06T05:18:14;15.26;67.89
72650;SHT31;61467;50.674;4.618;2022-07-06T05:20:42;15.15;68.27
72650;SHT31;61467;50.674;4.618;2022-07-06T05:23:09;15.09;68.48
72650;SHT31;61467;50.674;4.618;2022-07-06T05:25:36;15.28;68.15
72650;SHT31;61467;50.674;4.618;2022-07-06T05:28:03;15.40;67.77
72650;SHT31;61467;50.674;4.618;2022-07-06T05:30:30;15.43;67.86
72650;SHT31;61467;50.674;4.618;2022-07-06T05:32:57;15.25;67.85
72650;SHT31;61467;50.674;4.618;2022-07-06T05:35:23;15.23;68.04
72650;SHT31;61467;50.674;4.618;2022-07-06T05:37:51;15.09;68.48
72650;SHT31;61467;50.674;4.618;2022-07-06T05:40:18;14.99;69.26
72650;SHT31;61467;50.674;4.618;2022-07-06T05:42:45;14.89;69.72
72650;SHT31;61467;50.674;4.618;2022-07-06T05:45:12;14.85;69.56
72650;SHT31;61467;50.674;4.618;2022-07-06T05:47:39;14.91;69.54
72650;SHT31;61467;50.674;4.618;2022-07-06T05:50:23;14.95;69.27
72650;SHT31;61467;50.674;4.618;2022-07-06T05:52:57;15.28;68.56
72650;SHT31;61467;50.674;4.618;2022-07-06T05:55:24;15.33;68.27
72650;SHT31;61467;50.674;4.618;2022-07-06T05:57:51;15.59;67.91
72650;SHT31;61467;50.674;4.618;2022-07-06T06:00:20;15.77;67.13
72650;SHT31;61467;50.674;4.618;2022-07-06T06:02:47;15.70;66.93
72650;SHT31;61467;50.674;4.618;2022-07-06T06:05:14;15.66;66.84
72650;SHT31;61467;50.674;4.618;2022-07-06T06:07:41;15.60;67.02
72650;SHT31;61467;50.674;4.618;2022-07-06T06:10:11;15.54;67.57
72650;SHT31;61467;50.674;4.618;2022-07-06T06:12:39;15.60;67.71
72650;SHT31;61467;50.674;4.618;2022-07-06T06:15:07;15.83;67.17
72650;SHT31;61467;50.674;4.618;2022-07-06T06:17:35;15.94;67.30
72650;SHT31;61467;50.674;4.618;2022-07-06T06:20:02;16.07;67.09
72650;SHT31;61467;50.674;4.618;2022-07-06T06:22:29;16.14;67.12
72650;SHT31;61467;50.674;4.618;2022-07-06T06:24:56;16.14;67.16
72650;SHT31;61467;50.674;4.618;2022-07-06T06:27:24;16.12;67.67
72650;SHT31;61467;50.674;4.618;2022-07-06T06:29:50;16.28;67.04
72650;SHT31;61467;50.674;4.618;2022-07-06T06:32:17;16.12;67.58
72650;SHT31;61467;50.674;4.618;2022-07-06T06:34:44;16.29;66.98
72650;SHT31;61467;50.674;4.618;2022-07-06T06:37:10;16.48;66.46
72650;SHT31;61467;50.674;4.618;2022-07-06T06:39:37;16.42;67.12
72650;SHT31;61467;50.674;4.618;2022-07-06T06:42:04;16.71;66.29
72650;SHT31;61467;50.674;4.618;2022-07-06T06:44:32;16.80;65.37
72650;SHT31;61467;50.674;4.618;2022-07-06T06:46:59;16.89;65.19
72650;SHT31;61467;50.674;4.618;2022-07-06T06:49:25;16.99;64.72
72650;SHT31;61467;50.674;4.618;2022-07-06T06:51:52;17.14;63.95
72650;SHT31;61467;50.674;4.618;2022-07-06T06:54:19;17.28;62.69
72650;SHT31;61467;50.674;4.618;2022-07-06T06:56:45;17.34;62.39
72650;SHT31;61467;50.674;4.618;2022-07-06T06:59:12;17.61;61.80
72650;SHT31;61467;50.674;4.618;2022-07-06T07:01:40;17.40;59.22
72650;SHT31;61467;50.674;4.618;2022-07-06T07:04:07;17.68;59.06
72650;SHT31;61467;50.674;4.618;2022-07-06T07:06:33;17.78;58.32
72650;SHT31;61467;50.674;4.618;2022-07-06T07:09:00;17.74;56.73
72650;SHT31;61467;50.674;4.618;2022-07-06T07:11:27;17.91;54.72
72650;SHT31;61467;50.674;4.618;2022-07-06T07:13:53;17.71;55.14
72650;SHT31;61467;50.674;4.618;2022-07-06T07:16:20;18.08;54.17
72650;SHT31;61467;50.674;4.618;2022-07-06T07:18:48;18.25;54.27
72650;SHT31;61467;50.674;4.618;2022-07-06T07:21:14;18.42;53.53
72650;SHT31;61467;50.674;4.618;2022-07-06T07:23:41;18.36;53.44
72650;SHT31;61467;50.674;4.618;2022-07-06T07:26:08;18.47;52.30
72650;SHT31;61467;50.674;4.618;2022-07-06T07:28:35;18.59;51.20
72650;SHT31;61467;50.674;4.618;2022-07-06T07:31:02;18.77;50.17
72650;SHT31;61467;50.674;4.618;2022-07-06T07:33:29;18.88;49.80
72650;SHT31;61467;50.674;4.618;2022-07-06T07:35:57;19.05;50.49
72650;SHT31;61467;50.674;4.618;2022-07-06T07:38:24;19.18;49.20
72650;SHT31;61467;50.674;4.618;2022-07-06T07:40:50;18.81;47.55
72650;SHT31;61467;50.674;4.618;2022-07-06T07:43:19;19.18;46.83
72650;SHT31;61467;50.674;4.618;2022-07-06T07:45:46;19.33;47.94
72650;SHT31;61467;50.674;4.618;2022-07-06T07:48:13;19.55;47.58
72650;SHT31;61467;50.674;4.618;2022-07-06T07:50:40;19.53;46.93
72650;SHT31;61467;50.674;4.618;2022-07-06T07:53:08;18.97;47.59
72650;SHT31;61467;50.674;4.618;2022-07-06T07:55:35;18.85;47.09
72650;SHT31;61467;50.674;4.618;2022-07-06T07:58:02;19.29;47.49
72650;SHT31;61467;50.674;4.618;2022-07-06T08:00:29;19.36;47.49
72650;SHT31;61467;50.674;4.618;2022-07-06T08:02:56;19.58;46.32
72650;SHT31;61467;50.674;4.618;2022-07-06T08:05:23;19.76;46.52
72650;SHT31;61467;50.674;4.618;2022-07-06T08:07:50;19.96;46.14
72650;SHT31;61467;50.674;4.618;2022-07-06T08:10:18;20.07;46.47
72650;SHT31;61467;50.674;4.618;2022-07-06T08:12:45;20.01;47.55
72650;SHT31;61467;50.674;4.618;2022-07-06T08:15:12;19.72;48.22
72650;SHT31;61467;50.674;4.618;2022-07-06T08:17:39;19.86;48.52
72650;SHT31;61467;50.674;4.618;2022-07-06T08:20:06;20.01;48.53
72650;SHT31;61467;50.674;4.618;2022-07-06T08:22:35;20.09;48.17
72650;SHT31;61467;50.674;4.618;2022-07-06T08:25:02;20.07;48.39
72650;SHT31;61467;50.674;4.618;2022-07-06T08:27:30;20.14;48.39
72650;SHT31;61467;50.674;4.618;2022-07-06T08:29:57;20.22;48.57
72650;SHT31;61467;50.674;4.618;2022-07-06T08:32:25;20.31;47.32
72650;SHT31;61467;50.674;4.618;2022-07-06T08:34:52;20.13;48.05
72650;SHT31;61467;50.674;4.618;2022-07-06T08:37:19;20.40;48.46
72650;SHT31;61467;50.674;4.618;2022-07-06T08:39:45;20.51;47.28
72650;SHT31;61467;50.674;4.618;2022-07-06T08:42:12;20.35;48.20
72650;SHT31;61467;50.674;4.618;2022-07-06T08:44:43;20.35;47.48
72650;SHT31;61467;50.674;4.618;2022-07-06T08:47:10;20.61;46.69
72650;SHT31;61467;50.674;4.618;2022-07-06T08:49:38;20.04;47.59
72650;SHT31;61467;50.674;4.618;2022-07-06T08:52:05;20.44;46.78
72650;SHT31;61467;50.674;4.618;2022-07-06T08:54:33;20.48;47.65
72650;SHT31;61467;50.674;4.618;2022-07-06T08:57:02;20.40;47.65
72650;SHT31;61467;50.674;4.618;2022-07-06T08:59:29;20.53;47.84
72650;SHT31;61467;50.674;4.618;2022-07-06T09:01:57;20.51;48.25
72650;SHT31;61467;50.674;4.618;2022-07-06T09:04:25;20.72;47.77
72650;SHT31;61467;50.674;4.618;2022-07-06T09:06:54;20.61;47.99
72650;SHT31;61467;50.674;4.618;2022-07-06T09:09:23;20.75;47.87
72650;SHT31;61467;50.674;4.618;2022-07-06T09:11:50;20.35;48.08
72650;SHT31;61467;50.674;4.618;2022-07-06T09:14:17;20.68;47.81
72650;SHT31;61467;50.674;4.618;2022-07-06T09:16:46;20.62;47.09
72650;SHT31;61467;50.674;4.618;2022-07-06T09:19:16;20.55;47.78
72650;SHT31;61467;50.674;4.618;2022-07-06T09:21:42;20.44;47.89
72650;SHT31;61467;50.674;4.618;2022-07-06T09:24:10;20.72;48.49
72650;SHT31;61467;50.674;4.618;2022-07-06T09:26:38;20.72;48.49
72650;SHT31;61467;50.674;4.618;2022-07-06T09:29:05;20.61;49.17
72650;SHT31;61467;50.674;4.618;2022-07-06T09:31:32;21.07;47.26
72650;SHT31;61467;50.674;4.618;2022-07-06T09:34:00;21.31;45.68
72650;SHT31;61467;50.674;4.618;2022-07-06T09:36:52;21.53;49.25
72650;SHT31;61467;50.674;4.618;2022-07-06T09:39:21;21.81;47.66
72650;SHT31;61467;50.674;4.618;2022-07-06T09:41:50;21.74;45.92
72650;SHT31;61467;50.674;4.618;2022-07-06T09:44:22;21.75;47.89
72650;SHT31;61467;50.674;4.618;2022-07-06T09:46:50;21.81;47.35
72650;SHT31;61467;50.674;4.618;2022-07-06T09:49:17;21.22;46.74
72650;SHT31;61467;50.674;4.618;2022-07-06T09:51:45;21.57;47.74
72650;SHT31;61467;50.674;4.618;2022-07-06T09:54:14;21.85;46.51
72650;SHT31;61467;50.674;4.618;2022-07-06T09:56:42;21.50;46.17
72650;SHT31;61467;50.674;4.618;2022-07-06T09:59:10;21.43;46.71
72650;SHT31;61467;50.674;4.618;2022-07-06T10:01:37;21.43;46.36
72650;SHT31;61467;50.674;4.618;2022-07-06T10:04:05;21.44;47.47
72650;SHT31;61467;50.674;4.618;2022-07-06T10:06:32;21.50;47.68
72650;SHT31;61467;50.674;4.618;2022-07-06T10:08:59;21.13;47.85
72650;SHT31;61467;50.674;4.618;2022-07-06T10:11:28;21.36;47.84
72650;SHT31;61467;50.674;4.618;2022-07-06T10:13:56;21.30;48.40
72650;SHT31;61467;50.674;4.618;2022-07-06T10:16:24;21.51;47.92
72650;SHT31;61467;50.674;4.618;2022-07-06T10:18:51;21.50;46.92
72650;SHT31;61467;50.674;4.618;2022-07-06T10:21:20;21.61;46.25
72650;SHT31;61467;50.674;4.618;2022-07-06T10:23:48;21.64;47.59
72650;SHT31;61467;50.674;4.618;2022-07-06T10:26:16;21.49;47.04
72650;SHT31;61467;50.674;4.618;2022-07-06T10:28:45;21.04;47.43
72650;SHT31;61467;50.674;4.618;2022-07-06T10:31:13;20.88;48.15
72650;SHT31;61467;50.674;4.618;2022-07-06T10:33:41;20.65;48.43
72650;SHT31;61467;50.674;4.618;2022-07-06T10:36:09;21.02;49.23
72650;SHT31;61467;50.674;4.618;2022-07-06T10:38:36;21.27;48.11
72650;SHT31;61467;50.674;4.618;2022-07-06T10:41:04;21.29;48.66
72650;SHT31;61467;50.674;4.618;2022-07-06T10:43:34;21.46;48.10
72650;SHT31;61467;50.674;4.618;2022-07-06T10:46:09;21.47;47.11
72650;SHT31;61467;50.674;4.618;2022-07-06T10:48:38;21.57;47.73
72650;SHT31;61467;50.674;4.618;2022-07-06T10:51:06;21.92;47.27
72650;SHT31;61467;50.674;4.618;2022-07-06T10:53:34;22.15;46.26
72650;SHT31;61467;50.674;4.618;2022-07-06T10:56:03;22.15;46.30
72650;SHT31;61467;50.674;4.618;2022-07-06T10:58:45;21.97;46.59
72650;SHT31;61467;50.674;4.618;2022-07-06T11:01:15;22.12;45.57
72650;SHT31;61467;50.674;4.618;2022-07-06T11:03:43;22.04;46.19
72650;SHT31;61467;50.674;4.618;2022-07-06T11:06:14;21.68;46.72
72650;SHT31;61467;50.674;4.618;2022-07-06T11:08:52;21.81;47.40
72650;SHT31;61467;50.674;4.618;2022-07-06T11:11:21;22.18;46.53
72650;SHT31;61467;50.674;4.618;2022-07-06T11:13:49;22.19;45.26
72650;SHT31;61467;50.674;4.618;2022-07-06T11:16:18;22.25;45.46
72650;SHT31;61467;50.674;4.618;2022-07-06T11:18:48;22.32;45.86
72650;SHT31;61467;50.674;4.618;2022-07-06T11:21:20;22.04;45.07
72650;SHT31;61467;50.674;4.618;2022-07-06T11:23:48;22.22;45.61
72650;SHT31;61467;50.674;4.618;2022-07-06T11:26:17;21.97;45.69
72650;SHT31;61467;50.674;4.618;2022-07-06T11:28:46;22.20;45.59
72650;SHT31;61467;50.674;4.618;2022-07-06T11:31:14;21.88;45.03
72650;SHT31;61467;50.674;4.618;2022-07-06T11:33:45;22.33;45.87
72650;SHT31;61467;50.674;4.618;2022-07-06T11:36:13;22.43;43.74
72650;SHT31;61467;50.674;4.618;2022-07-06T11:38:40;22.61;43.65
72650;SHT31;61467;50.674;4.618;2022-07-06T11:41:06;22.76;43.80
72650;SHT31;61467;50.674;4.618;2022-07-06T11:43:33;22.96;43.80
72650;SHT31;61467;50.674;4.618;2022-07-06T11:46:00;22.97;42.82
72650;SHT31;61467;50.674;4.618;2022-07-06T11:48:27;23.18;42.78
72650;SHT31;61467;50.674;4.618;2022-07-06T11:50:59;22.76;42.53
72650;SHT31;61467;50.674;4.618;2022-07-06T11:53:25;22.91;42.94
72650;SHT31;61467;50.674;4.618;2022-07-06T11:55:52;23.12;43.07
72650;SHT31;61467;50.674;4.618;2022-07-06T11:58:21;22.81;41.95
72650;SHT31;61467;50.674;4.618;2022-07-06T12:01:04;22.49;42.25
72650;SHT31;61467;50.674;4.618;2022-07-06T12:03:31;22.77;42.56
72650;SHT31;61467;50.674;4.618;2022-07-06T12:06:01;22.69;41.74
72650;SHT31;61467;50.674;4.618;2022-07-06T12:08:28;23.01;42.52
72650;SHT31;61467;50.674;4.618;2022-07-06T12:10:55;22.86;42.89
72650;SHT31;61467;50.674;4.618;2022-07-06T12:13:22;23.04;43.52
72650;SHT31;61467;50.674;4.618;2022-07-06T12:15:50;23.24;42.60
72650;SHT31;61467;50.674;4.618;2022-07-06T12:18:17;23.31;42.96
72650;SHT31;61467;50.674;4.618;2022-07-06T12:20:43;23.57;41.95
72650;SHT31;61467;50.674;4.618;2022-07-06T12:23:12;23.92;41.62
72650;SHT31;61467;50.674;4.618;2022-07-06T12:25:38;23.76;40.89
72650;SHT31;61467;50.674;4.618;2022-07-06T12:28:05;23.85;41.55
72650;SHT31;61467;50.674;4.618;2022-07-06T12:30:33;24.14;41.04
72650;SHT31;61467;50.674;4.618;2022-07-06T12:33:16;23.52;40.83
72650;SHT31;61467;50.674;4.618;2022-07-06T12:35:44;23.06;42.34
72650;SHT31;61467;50.674;4.618;2022-07-06T12:38:12;22.63;42.92
72650;SHT31;61467;50.674;4.618;2022-07-06T12:40:39;22.69;43.68
72650;SHT31;61467;50.674;4.618;2022-07-06T12:43:06;22.70;43.55
72650;SHT31;61467;50.674;4.618;2022-07-06T12:45:33;22.91;43.48
72650;SHT31;61467;50.674;4.618;2022-07-06T12:48:03;22.84;44.22
72650;SHT31;61467;50.674;4.618;2022-07-06T12:50:31;22.80;44.53
72650;SHT31;61467;50.674;4.618;2022-07-06T12:52:59;23.01;44.04
72650;SHT31;61467;50.674;4.618;2022-07-06T12:55:28;23.39;43.89
72650;SHT31;61467;50.674;4.618;2022-07-06T12:57:56;23.93;43.39
72650;SHT31;61467;50.674;4.618;2022-07-06T13:00:24;23.70;41.90
72650;SHT31;61467;50.674;4.618;2022-07-06T13:02:52;23.95;41.69
72650;SHT31;61467;50.674;4.618;2022-07-06T13:05:25;23.45;42.14
72650;SHT31;61467;50.674;4.618;2022-07-06T13:07:55;23.35;42.64
72650;SHT31;61467;50.674;4.618;2022-07-06T13:10:23;23.41;42.62
72650;SHT31;61467;50.674;4.618;2022-07-06T13:12:51;23.68;42.92
72650;SHT31;61467;50.674;4.618;2022-07-06T13:15:18;23.96;40.44
72650;SHT31;61467;50.674;4.618;2022-07-06T13:17:45;24.16;41.50
72650;SHT31;61467;50.674;4.618;2022-07-06T13:20:13;24.53;41.58
72650;SHT31;61467;50.674;4.618;2022-07-06T13:22:41;24.58;39.71
72650;SHT31;61467;50.674;4.618;2022-07-06T13:25:09;25.15;39.41
72650;SHT31;61467;50.674;4.618;2022-07-06T13:27:35;25.32;39.70
72650;SHT31;61467;50.674;4.618;2022-07-06T13:30:04;25.53;39.39
72650;SHT31;61467;50.674;4.618;2022-07-06T13:32:31;25.15;38.85
72650;SHT31;61467;50.674;4.618;2022-07-06T13:34:58;25.25;39.51
72650;SHT31;61467;50.674;4.618;2022-07-06T13:37:25;25.29;39.44
72650;SHT31;61467;50.674;4.618;2022-07-06T13:39:52;25.36;39.54
72650;SHT31;61467;50.674;4.618;2022-07-06T13:42:18;25.12;39.42
72650;SHT31;61467;50.674;4.618;2022-07-06T13:44:45;25.02;38.97
72650;SHT31;61467;50.674;4.618;2022-07-06T13:47:14;24.33;38.69
72650;SHT31;61467;50.674;4.618;2022-07-06T13:49:40;24.47;40.59
72650;SHT31;61467;50.674;4.618;2022-07-06T13:52:08;24.99;39.57
72650;SHT31;61467;50.674;4.618;2022-07-06T13:54:34;25.22;40.35
72650;SHT31;61467;50.674;4.618;2022-07-06T13:57:02;25.33;39.73
72650;SHT31;61467;50.674;4.618;2022-07-06T13:59:29;25.39;38.33
72650;SHT31;61467;50.674;4.618;2022-07-06T14:01:56;25.73;38.82
72650;SHT31;61467;50.674;4.618;2022-07-06T14:04:24;25.77;38.44
72650;SHT31;61467;50.674;4.618;2022-07-06T14:06:50;25.42;38.64
72650;SHT31;61467;50.674;4.618;2022-07-06T14:09:17;25.83;38.93
72650;SHT31;61467;50.674;4.618;2022-07-06T14:11:44;25.71;38.94
72650;SHT31;61467;50.674;4.618;2022-07-06T14:14:10;25.60;38.07
72650;SHT31;61467;50.674;4.618;2022-07-06T14:16:37;25.94;39.13
72650;SHT31;61467;50.674;4.618;2022-07-06T14:19:05;25.53;37.83
72650;SHT31;61467;50.674;4.618;2022-07-06T14:21:33;25.29;38.71
72650;SHT31;61467;50.674;4.618;2022-07-06T14:24:00;25.70;39.89
72650;SHT31;61467;50.674;4.618;2022-07-06T14:26:27;26.01;38.75
72650;SHT31;61467;50.674;4.618;2022-07-06T14:28:53;25.69;38.83
72650;SHT31;61467;50.674;4.618;2022-07-06T14:31:20;25.87;37.61
72650;SHT31;61467;50.674;4.618;2022-07-06T14:33:49;26.17;37.96
72650;SHT31;61467;50.674;4.618;2022-07-06T14:36:16;25.51;37.86
72650;SHT31;61467;50.674;4.618;2022-07-06T14:38:44;26.17;38.07
72650;SHT31;61467;50.674;4.618;2022-07-06T14:41:11;26.27;37.94
72650;SHT31;61467;50.674;4.618;2022-07-06T14:43:38;26.11;37.18
72650;SHT31;61467;50.674;4.618;2022-07-06T14:46:05;26.08;36.51
72650;SHT31;61467;50.674;4.618;2022-07-06T14:48:32;26.01;36.84
72650;SHT31;61467;50.674;4.618;2022-07-06T14:50:59;25.06;38.36
72650;SHT31;61467;50.674;4.618;2022-07-06T14:53:25;24.87;39.22
72650;SHT31;61467;50.674;4.618;2022-07-06T14:55:54;25.20;39.44
72650;SHT31;61467;50.674;4.618;2022-07-06T14:58:20;25.26;40.08
72650;SHT31;61467;50.674;4.618;2022-07-06T15:00:48;25.77;38.96
72650;SHT31;61467;50.674;4.618;2022-07-06T15:03:14;25.63;38.09
72650;SHT31;61467;50.674;4.618;2022-07-06T15:05:42;25.43;38.11
72650;SHT31;61467;50.674;4.618;2022-07-06T15:08:11;24.77;39.30
72650;SHT31;61467;50.674;4.618;2022-07-06T15:10:40;24.91;40.39
72650;SHT31;61467;50.674;4.618;2022-07-06T15:13:08;25.20;39.80
72650;SHT31;61467;50.674;4.618;2022-07-06T15:15:35;24.87;38.82
72650;SHT31;61467;50.674;4.618;2022-07-06T15:18:02;25.04;38.26
72650;SHT31;61467;50.674;4.618;2022-07-06T15:20:29;25.20;39.86
72650;SHT31;61467;50.674;4.618;2022-07-06T15:22:56;24.98;38.20
72650;SHT31;61467;50.674;4.618;2022-07-06T15:25:23;24.84;39.26
72650;SHT31;61467;50.674;4.618;2022-07-06T15:27:50;25.43;39.06
72650;SHT31;61467;50.674;4.618;2022-07-06T15:30:18;25.51;38.48
72650;SHT31;61467;50.674;4.618;2022-07-06T15:32:45;25.86;38.23